Main page
METAR-TAF:

METAR-TAF

Airports :

Cornwall Airport Newquay

Newquay Cornwall, England

latitude: 50-26N, longitude: 005-00W, elevation: 119 m

Current weather observation

The report was made 1 hour and 36 minutes ago, at 19:50 UTC
Wind 4 kt from the West, varying between West/Southwest and Northwest
Temperature 13°C
Humidity 94%
Pressure 1019 hPa
Visibility: 5000 m
Broken clouds at a height of 3000 ft
haze

METAR: EGHQ 241950Z 28004KT 240V310 5000 HZ BKN030 13/12 Q1019

Time: 22:26 (21:26 UTC)

Forecast

The report was made 10 hours and 22 minutes ago, at 11:04 UTC
Forecast valid from 24 at 12 UTC to 24 at 21 UTC
Wind 7 kt from the Southeast
Visibility 10 km or more
Scattered clouds at a height of 2500 ft
Becoming
from 24 at 12 UTC to 24 at 14 UTC
Wind 11 kt from the North/Northwest
Probability 30% :
Temporary
from 24 at 12 UTC to 24 at 21 UTC
Visibility: 8000 m
Broken clouds at a height of 1400 ft

TAF: EGHQ 241104Z 2412/2421 13007KT 9999 SCT025 BECMG 2412/2414 34011KT PROB30 TEMPO 2412/2421 8000 BKN014

Weather observations and forecasts of more than 4000 airports (METAR and TAF reports).

The available stations are represented by yellow and red dots on the map.

Hover mouse over dot to see the name of the station.

Then click to see weather observations and forecasts.

To change the map : click on the green buttons with a black cross to zoom in, on the green button with a dash to zoom out, or on the green arrows for adjacent maps.


METAR-TAF: